Taylors Island, Maryland
Current Conditions -  °F | °C
As of 4:52 AM on Thursday 23 Oct 2014 (Local Time) from KNHK Reporting Station
Overcast Overcast  
Wind Chill: 12°   Ceiling: 3300
Heat Index: 12°   Visibility: 10mi
Dew Point:   Wind: 22mph
Humidity: 69%   Direction: 320°NW
Pressure: 29.83"   Gusts: 35mph
Location:  38.47°N, 76.3°W
Report Text: KNHK 230852Z AUTO 32019G30KT 10SM BKN033 OVC041 12/06 A2983 RMK AO2 PK WND 33030/0844 SLP103 T01170061 55006
Loading
Personal Weather Stations






























Interactive Weather Map
Tropical Storm Tracking
New forecast layout! Learn more

10-Day Weather Forecast

Advertisements
Track Severe Weather on mobile